La Push, WA

7:31 AM PDT on August 01, 2014 (GMT -0700)
Quillayute (KUIL) Elev 194 ft | 47.94 °N, 124.56 °W | Change Station

Current weather conditions updated 38 minutes ago

Fog
Fog
53 °F
Feels Like 53 °F
N
4
Wind Variable Wind from ENE

Today is forecast to be Much Cooler than yesterday.

Today
High -- | Low -- °F
--% Chance of Precip.
Yesterday
High -- | Low -- °F
Precip. -- in
5:55 AM 8:53 PM
Waxing Crescent, 27% visible
Pressure 30.07 in
Visibility 0.2 miles
Clouds
Dew Point 53 °F
Humidity 100%
Rainfall 0.00 in
Snow Depth Not available.
UV Not available.
Pollen 3.50 out of 12
Air Quality Not available.
Flu Activity Not available.
METAR KUIL 011353Z AUTO 06003KT M1/4SM FG VV002 12/12 A3007 RMK AO2 SLP182 T01170117

More Conditions Fewer Conditions

Pressure 30.07 in
Visibility 0.2 miles
Clouds
Dew Point 53 °F
Humidity 100%
Rainfall 0.00 in
Snow Depth Not available.
UV Not available.
Pollen 3.50 out of 12
Air Quality Not available.
Flu Activity Not available.
METAR KUIL 011353Z AUTO 06003KT M1/4SM FG VV002 12/12 A3007 RMK AO2 SLP182 T01170117

More Conditions Fewer Conditions

10-Day Weather Forecast

Almanac

Astronomy

Aug. 01, 2014 Rise Set
Actual Time 5:55 AM PDT 8:53 PM PDT
Civil Twilight 5:18 AM PDT 9:29 PM PDT
Nautical Twilight 4:31 AM PDT 10:16 PM PDT
Astronomical Twilight 3:34 AM PDT 11:12 PM PDT
Moon 11:53 AM PDT 11:11 PM PDT
Length of Visible Light 16h 11m
Length of Day
14h 58m
Tomorrow will be 2m 43s shorter.
Waxing Crescent, 27% of the Moon is Illuminated
Today
Waxing Crescent
Aug 3
First Quarter
Aug 10
Full
Aug 17
Last Quarter
Aug 25
New

Today's Extremes

State Highs State Lows

Community

WunderPhotos

Upload Photos

1,739,592 photos uploaded!

Nearby

Snow Depth

Station Depth Elevation
Dungeness 3 in 4100 ft
Alpine Meadows 0 in 3500 ft
Elbow Lake 0 in 3200 ft
Mf Nooksack 7 in 4980 ft
Burnt Mountain 0 in 4200 ft

Earthquake Activity

City Distance Mag. Time & Date
Belfair, Washington 90 miles 3.5 4:04 AM PDT
2014-07-28
Minimum magnitude displayed is 2.5.

Coastal Water Temperatures

Place Temperature
La Push, WA 46.9 °F
Westport, WA 55.0 °F
Port Angeles, WA 53.1 °F
Astoria, OR 70.0 °F

Nearby Weather Stations

Station Location Temp. Windchill Dew Point Humidity Wind Precip. Elev Updated Type
RAWS FORKS WA, Forks, WA 45 °F 45 °F 44 °F 98% North  at  0 mph 0.00 in / hr 303 ft 6:33 AM PDT MADIS
Lake Ozette, Clallam Bay, WA 57.2 °F - 50 °F 78% NW  at  8.1 mph 0.00 in / hr 125 ft 7:31 AM PDT Rapid Fire
MARITIME , Forks, WA 51 °F - - - North  at  10 mph 0.00 in / hr 68 ft 7:00 AM PDT MADIS
RAWS ELLIS MT WA, Clallam Bay, WA 68 °F - 35 °F 30% NW  at  3 mph 0.00 in / hr 2305 ft 7:00 AM PDT MADIS

Show More Stations Show Fewer Stations